HEMM

Details ICAO HEMM (MUH)
Name MERSA MATRUH
Region Egypt
Timezone Africa/Cairo (UTC+2.0)
Plans Departing 15
Arriving 24
Stats Elevation 94 ft / 29 m (AMSL)
Location 31.327068° 27.225097°
Runways 2
Magnetic Variation 4.233° E
Sunrise 2017-12-18 05:05:41 UTC / 2017-12-18 07:05:41 Local
Sunset 2017-12-18 15:12:22 UTC / 2017-12-18 17:12:22 Local
Advertisement - Login to hide

Runways

ID Width Length Bearing (true) Bearing (mag) Surface Threshold Offset Overrun Length
06 148 ft / 45 m 9,826 ft / 2,995 m 59.88° 55.65° Asphalt 160 ft / 49 m 0 ft / 0 m
15 148 ft / 45 m 9,871 ft / 3,009 m 149.80° 145.57° Asphalt 0 ft / 0 m 80 ft / 24 m
24 148 ft / 45 m 9,826 ft / 2,995 m 239.90° 235.67° Asphalt 160 ft / 49 m 0 ft / 0 m
33 148 ft / 45 m 9,871 ft / 3,009 m 329.81° 325.58° Asphalt 0 ft / 0 m 0 ft / 0 m

Map

Weather


0- 5 10 15 20 25 30 35+ Temperature / ° C

Clouds and Precipitation
Forecast for 2017-12-18 06:00 UTC. Updated 26 minutes ago

Ground ~20,000 ft ~40,000 ft Winds

METAR

HEMM 180300Z 29007KT CAVOK 16/13 Q1019 NOSIG

TAF

Not found

Frequencies

Tower 118.10 MHz MATRUH TWR
Tower 121.90 MHz MATRUH TWR
Warning: Do not use this data for real-world aviation or navigation. No guarantee of current accuracy is given.